Latest Coastal Weather Observations for Taree Airport

IDN60701

Issued at 5:42 am EST Saturday 30 July 2016 (issued every 10 minutes, with the page automatically refreshed every 10 minutes)

About coastal observations | Map of coastal stations | Coastal observations for NSW | Marine services | Other Formats
Station Details ID: 060141 Name: TAREE AIRPORT AWS Lat: -31.89 Lon: 152.51 Height: 8.0 m
Data from the previous 72 hours. | See also: Recent months at Taree Airport
Date/Time
EST
Temp
°C
Wind Pressure Rain since
9am
mm
Weather Cloud Vis
km
Sea
Height
m
Swell
Dir  Spd
kts
Gust
kts
hPa Trend Height
m
Period
s
Dir
30/05:30am 5.4 W 7 8 1021.6 - 0.2 - - 10 - - - -
30/05:00am 5.2 WSW 7 8 1021.5 - 0.2 - - 10 - - - -
30/04:30am 5.2 NW 6 7 1021.0 - 0.2 - - 10 - - - -
30/04:00am 3.6 CALM 0 0 1020.9 - 0.2 - - 8 - - - -
30/03:30am 3.3 CALM 0 0 1020.9 - 0.2 - - 9 - - - -
30/03:04am 4.9 SW 5 6 1020.9 - 0.2 - - 8 - - - -
30/03:00am 3.6 W 3 6 1020.9 - 0.2 - - 10 - - - -
30/02:30am 4.9 W 1 4 1020.7 - 0.2 - Partly cloudy 0.5 - - - -
30/02:00am 3.2 CALM 0 0 1020.8 - 0.2 - - 0.8 - - - -
30/01:30am 3.7 WSW 1 3 1020.6 - 0.2 - - 0.7 - - - -
30/01:27am 4.2 WSW 1 3 1020.6 - 0.2 - - 2 - - - -
30/01:03am 7.2 WSW 5 6 1020.7 - 0.2 - - 7 - - - -
30/01:00am 7.3 WSW 4 6 1020.7 - 0.2 - - 6 - - - -
30/12:31am 7.4 W 3 4 1020.6 - 0.2 - - 5 - - - -
30/12:30am 7.4 WSW 3 4 1020.6 - 0.2 - - 6 - - - -
30/12:13am 7.7 W 5 5 1020.4 - 0.2 - - 7 - - - -
30/12:00am 5.9 CALM 0 0 1020.4 - 0.2 - - 2 - - - -
 
Date/Time
EST
Temp
°C
Wind Pressure Rain since
9am
mm
Weather Cloud Vis
km
Sea
Height
m
Swell
Dir  Spd
kts
Gust
kts
hPa Trend Height
m
Period
s
Dir
29/11:30pm 5.4 CALM 0 0 1020.3 - 0.2 - - 5 - - - -
29/11:00pm 6.5 CALM 0 0 1020.3 - 0.2 - Partly cloudy 0.5 - - - -
29/10:30pm 7.0 CALM 0 0 1020.0 - 0.2 - - 3 - - - -
29/10:29pm 6.9 CALM 0 0 1020.0 - 0.2 - - 5 - - - -
29/10:00pm 7.6 CALM 0 0 1020.0 - 0.0 - - 10 - - - -
29/09:30pm 8.9 CALM 0 0 1020.1 - 0.0 - - 10 - - - -
29/09:12pm 8.5 CALM 0 0 1020.0 - 0.0 - Partly cloudy 10 - - - -
29/09:00pm 8.4 CALM 0 0 1020.0 - 0.0 - Mostly clear 0.5 - - - -
29/08:44pm 8.0 CALM 0 0 1019.8 - 0.0 - - 5 - - - -
29/08:30pm 8.7 WNW 1 4 1019.7 - 0.0 - - 10 - - - -
29/08:00pm 9.2 W 1 4 1019.6 - 0.0 - - 10 - - - -
29/07:30pm 10.4 NW 4 5 1019.5 - 0.0 - - 10 - - - -
29/07:00pm 11.2 WNW 4 5 1019.2 - 0.0 - - 10 - - - -
29/06:30pm 12.3 CALM 0 0 1018.9 - 0.0 - - 10 - - - -
29/06:00pm 13.0 CALM 0 0 1018.6 - 0.0 - - 10 - - - -
29/05:30pm 13.6 ESE 4 4 1018.3 - 0.0 - - 10 - - - -
29/05:00pm 14.7 ESE 4 5 1018.3 - 0.0 - - 10 - - - -
29/04:30pm 16.0 E 6 8 1018.0 - 0.0 - - 10 - - - -
29/04:00pm 16.4 E 7 9 1018.1 - 0.0 - - 10 - - - -
29/03:30pm 16.7 E 7 10 1018.2 - 0.0 - - 10 - - - -
29/03:00pm 17.3 E 8 11 1018.4 - 0.0 - - 10 - - - -
29/02:30pm 17.4 E 8 11 1018.6 - 0.0 - - 10 - - - -
29/02:00pm 17.3 E 7 10 1018.8 - 0.0 - - 10 - - - -
29/01:30pm 17.2 ESE 7 10 1019.2 - 0.0 - - 10 - - - -
29/01:00pm 16.7 E 7 10 1019.7 - 0.0 - - 10 - - - -
29/12:30pm 17.0 E 9 11 1020.1 - 0.0 - - 10 - - - -
29/12:00pm 17.2 ENE 4 9 1020.6 - 0.0 - - 10 - - - -
29/11:30am 16.4 E 7 10 1021.3 - 0.0 - - 10 - - - -
29/11:00am 16.0 E 5 7 1021.7 - 0.0 - - 10 - - - -
29/10:30am 15.1 ENE 4 6 1022.1 - 0.0 - - 10 - - - -
29/10:00am 13.3 S 3 4 1022.7 - 0.0 - - 10 - - - -
29/09:30am 11.6 W 4 5 1022.8 - 0.0 - - 10 - - - -
29/09:00am 10.3 W 5 6 1022.9 - 0.0 - - 10 - - - -
29/08:30am 8.2 W 5 6 1023.0 - 0.0 - - 10 - - - -
29/08:00am 6.4 W 5 7 1022.9 - 0.0 - - 10 - - - -
29/07:30am 5.7 W 5 6 1022.9 - 0.0 - - 10 - - - -
29/07:00am 4.8 W 4 5 1022.9 - 0.0 - - 10 - - - -
29/06:30am 2.1 NW 4 4 1022.8 - 0.0 - - 10 - - - -
29/06:00am 5.0 W 4 5 1022.6 - 0.0 - - 10 - - - -
29/05:30am 4.3 NW 4 5 1022.5 - 0.0 - - 10 - - - -
29/05:00am 2.3 CALM 0 0 1022.3 - 0.0 - - 10 - - - -
29/04:30am 3.5 CALM 0 2 1022.1 - 0.0 - - 10 - - - -
29/04:00am 2.6 NNW 4 5 1022.1 - 0.0 - - 10 - - - -
29/03:30am 3.5 WNW 3 6 1022.1 - 0.0 - - 10 - - - -
29/03:04am 3.7 SSW 3 4 1022.3 - 0.0 - - 10 - - - -
29/03:00am 3.6 SSW 3 4 1022.3 - 0.0 - - 10 - - - -
29/02:40am 3.3 CALM 0 0 1022.3 - 0.0 - - 5 - - - -
29/02:30am 3.9 NW 1 3 1022.3 - 0.0 - - 10 - - - -
29/02:00am 3.8 W 1 3 1022.0 - 0.0 - - 10 - - - -
29/01:30am 3.7 NNW 3 4 1022.1 - 0.0 - - 10 - - - -
29/01:00am 3.3 CALM 0 0 1022.2 - 0.0 - - 10 - - - -
29/12:30am 4.2 CALM 0 0 1022.3 - 0.0 - - 10 - - - -
29/12:00am 5.8 CALM 0 0 1022.4 - 0.0 - - 10 - - - -
 
Date/Time
EST
Temp
°C
Wind Pressure Rain since
9am
mm
Weather Cloud Vis
km
Sea
Height
m
Swell
Dir  Spd
kts
Gust
kts
hPa Trend Height
m
Period
s
Dir
28/11:30pm 7.0 WSW 3 5 1022.3 - 0.0 - - 10 - - - -
28/11:00pm 6.5 CALM 0 0 1022.5 - 0.0 - - 10 - - - -
28/10:30pm 6.5 W 4 5 1022.6 - 0.0 - - 10 - - - -
28/10:00pm 6.2 NNW 3 4 1022.6 - 0.0 - - 10 - - - -
28/09:30pm 6.4 CALM 0 0 1022.8 - 0.0 - - 10 - - - -
28/09:00pm 7.6 CALM 0 0 1022.8 - 0.0 - - 10 - - - -
28/08:30pm 7.4 CALM 0 0 1022.8 - 0.0 - - 10 - - - -
28/08:00pm 8.4 NW 3 4 1022.9 - 0.0 - - 10 - - - -
28/07:30pm 9.7 WNW 3 3 1022.8 - 0.0 - - 10 - - - -
28/07:00pm 10.8 CALM 0 0 1022.6 - 0.0 - - 10 - - - -
28/06:30pm 9.6 NNE 2 3 1022.4 - 0.0 - - 10 - - - -
28/06:00pm 12.4 CALM 0 0 1022.1 - 0.0 - - 10 - - - -
28/05:30pm 12.6 E 1 3 1021.8 - 0.0 - - 10 - - - -
28/05:00pm 14.6 E 5 6 1021.6 - 0.0 - - 10 - - - -
28/04:30pm 15.9 ENE 5 7 1021.5 - 0.0 - - 10 - - - -
28/04:00pm 16.7 E 6 9 1021.4 - 0.0 - - 10 - - - -
28/03:30pm 17.2 ESE 7 9 1021.3 - 0.0 - - 10 - - - -
28/03:00pm 17.6 ESE 7 9 1021.4 - 0.0 - - 10 - - - -
28/02:30pm 18.5 SSW 4 6 1021.3 - 0.0 - - 10 - - - -
28/02:00pm 18.1 WSW 5 7 1021.4 - 0.0 - - 10 - - - -
28/01:30pm 18.3 NW 4 6 1021.6 - 0.0 - - 10 - - - -
28/01:00pm 17.8 NW 4 7 1022.0 - 0.0 - - 10 - - - -
28/12:30pm 17.6 SSW 5 8 1022.6 - 0.0 - - 10 - - - -
28/12:00pm 17.3 S 6 9 1023.3 - 0.0 - - 10 - - - -
28/11:30am 16.5 SW 7 10 1023.8 - 0.0 - - 10 - - - -
28/11:00am 16.4 SW 7 10 1024.4 - 0.0 - - 10 - - - -
28/10:30am 15.7 WSW 7 9 1024.6 - 0.0 - - 10 - - - -
28/10:00am 14.7 W 7 10 1024.6 - 0.0 - - 10 - - - -
28/09:30am 13.6 WSW 7 9 1024.7 - 0.0 - - 10 - - - -
28/09:00am 12.1 W 6 7 1024.6 - 0.0 - - 10 - - - -
28/08:30am 10.4 WSW 5 7 1024.3 - 0.0 - - 10 - - - -
28/08:00am 9.0 WSW 5 7 1024.2 - 0.0 - - 10 - - - -
28/07:30am 4.5 N 3 5 1023.9 - 0.0 - - 10 - - - -
28/07:00am 6.9 WSW 5 6 1023.5 - 0.0 - - 10 - - - -
28/06:30am 5.7 CALM 0 0 1023.0 - 0.0 - - 10 - - - -
28/06:00am 4.0 NNW 1 5 1022.8 - 0.0 - - 10 - - - -
28/05:30am 7.4 WSW 5 6 1022.5 - 0.0 - - 10 - - - -
28/05:00am 7.3 SW 5 7 1022.0 - 0.0 - - 10 - - - -
28/04:30am 7.7 W 4 4 1021.7 - 0.0 - - 10 - - - -
28/04:00am 5.1 WNW 2 4 1021.6 - 0.0 - - 10 - - - -
28/03:30am 7.1 NNW 4 4 1021.5 - 0.0 - - 10 - - - -
28/03:00am 4.5 SSW 1 4 1021.5 - 0.0 - - 10 - - - -
28/02:30am 7.3 SW 6 7 1021.4 - 0.0 - - 10 - - - -
28/02:00am 6.3 NNE 3 4 1021.3 - 0.0 - - 10 - - - -
28/01:49am 5.5 NNW 4 6 1021.2 - 0.0 - - 10 - - - -
28/01:30am 10.7 WSW 8 10 1021.1 - 0.0 - - 10 - - - -
28/01:00am 10.0 SW 7 10 1021.0 - 0.0 - - 10 - - - -
28/12:30am 9.2 SW 6 8 1020.9 - 0.0 - - 10 - - - -
28/12:00am 10.7 W 3 8 1020.6 - 0.0 - - 10 - - - -
 
Date/Time
EST
Temp
°C
Wind Pressure Rain since
9am
mm
Weather Cloud Vis
km
Sea
Height
m
Swell
Dir  Spd
kts
Gust
kts
hPa Trend Height
m
Period
s
Dir
27/11:30pm 7.6 W 1 5 1020.6 - 0.0 - - 10 - - - -
27/11:00pm 12.2 WSW 5 7 1020.2 - 0.0 - - 10 - - - -
27/10:30pm 12.5 WSW 7 9 1019.9 - 0.0 - - 10 - - - -
27/10:00pm 11.0 WSW 5 7 1019.8 - 0.0 - - 10 - - - -
27/09:30pm 13.1 W 5 8 1019.7 - 0.0 - - 10 - - - -
27/09:00pm 13.3 W 7 9 1019.5 - 0.0 - - 10 - - - -
27/08:30pm 13.5 WNW 6 8 1019.1 - 0.0 - - 10 - - - -
27/08:00pm 12.9 W 4 6 1018.8 - 0.0 - - 10 - - - -
27/07:30pm 12.4 WSW 4 5 1018.5 - 0.0 - - 10 - - - -
27/07:00pm 14.0 W 5 7 1018.1 - 0.0 - - 10 - - - -
27/06:30pm 14.7 NW 4 7 1017.4 - 0.0 - - 10 - - - -
27/06:00pm 15.7 W 5 7 1017.0 - 0.0 - - 10 - - - -
27/05:30pm 16.6 WNW 8 16 1016.4 - 0.0 - - 10 - - - -
27/05:00pm 17.4 W 9 13 1015.8 - 0.0 - - 10 - - - -
27/04:30pm 18.4 W 8 15 1015.5 - 0.0 - - 10 - - - -
27/04:00pm 18.9 W 12 19 1014.7 - 0.0 - - 10 - - - -
27/03:30pm 19.3 W 13 26 1014.5 - 0.0 - - 10 - - - -
27/03:23pm 19.2 WNW 15 26 1014.3 - 0.0 - - 10 - - - -
27/03:00pm 19.4 WNW 14 24 1014.2 - 0.0 - - 10 - - - -
27/02:33pm 19.3 WNW 17 27 1014.0 - 0.0 - - 10 - - - -
27/02:30pm 19.6 WNW 16 25 1014.1 - 0.0 - - 10 - - - -
27/02:00pm 19.2 WNW 15 27 1014.0 - 0.0 - - 10 - - - -
27/01:44pm 19.2 W 18 28 1014.0 - 0.0 - - 10 - - - -
27/01:30pm 19.1 W 14 21 1014.1 - 0.0 - - 10 - - - -
27/01:00pm 18.9 W 15 25 1014.4 - 0.0 - Partly cloudy 10 - - - -
27/12:30pm 19.3 WNW 17 27 1014.3 - 0.0 - Partly cloudy 10 - - - -
27/12:27pm 19.0 WNW 15 27 1014.3 - 0.0 - Partly cloudy 10 - - - -
27/12:00pm 18.9 WNW 15 20 1014.5 - 0.0 - Partly cloudy 10 - - - -
27/11:30am 17.8 WNW 12 17 1015.0 - 0.0 - Partly cloudy 10 - - - -
27/11:00am 18.9 W 14 20 1015.1 - 0.0 - - 10 - - - -
27/10:30am 17.8 W 9 14 1015.3 - 0.0 - - 10 - - - -
27/10:00am 17.0 NW 12 16 1015.4 - 0.0 - - 10 - - - -
27/09:30am 16.3 NW 7 13 1015.5 - 0.0 - - 10 - - - -
27/09:00am 14.4 WSW 1 6 1015.8 - 0.0 - - 10 - - - -
27/08:59am 14.3 SW 1 5 1015.8 - 0.0 - - 10 - - - -
27/08:30am 9.3 NNW 3 6 1015.9 - 0.0 - - 10 - - - -
27/08:25am 12.3 NNW 4 5 1015.9 - 0.0 - - 10 - - - -
27/08:00am 7.1 SSW 2 5 1016.0 - 0.0 - - 10 - - - -
27/07:30am 4.4 ENE 1 5 1015.8 - 0.0 - - 10 - - - -
27/07:00am 3.0 NNE 1 4 1015.8 - 0.0 - - 10 - - - -
27/06:30am 4.0 CALM 0 0 1015.5 - 0.0 - - 10 - - - -
27/06:00am 3.9 W 1 4 1015.6 - 0.0 - - 10 - - - -

Other Formats:

Comma delimited format used in spreadsheet applications
http://www.bom.gov.au/fwo/IDN60701/IDN60701.95784.axf

JavaScript Object Notation format (JSON) in row-major order
http://www.bom.gov.au/fwo/IDN60701/IDN60701.95784.json